Time;durP1;ratioP1;P1;durP2;ratioP2;P2;SDS_P1;SDS_P2;PMS_P1;PMS_P2;Temp;Humidity;BMP_temperature;BMP_pressure;BME280_temperature;BME280_humidity;BME280_pressure;Samples;Min_cycle;Max_cycle;Signal;HPM_P1;HPM_P2
2022/12/21 00:00:09;0.00;0.00;0.62;0.00;0.00;0.62;1.60;1.20;;;22.50;26.20;;;;;;2267586;61;20431;-62
2022/12/21 00:02:57;0.00;0.00;0.62;0.00;0.00;0.62;1.50;0.93;;;22.50;26.20;;;;;;2268639;61;20413;-63
2022/12/21 00:05:42;0.00;0.00;0.62;0.00;0.00;0.62;2.20;1.20;;;22.50;26.20;;;;;;2268617;61;20383;-62
2022/12/21 00:08:26;0.00;0.00;0.62;0.00;0.00;0.62;1.80;1.30;;;22.50;26.10;;;;;;2268227;61;20395;-64
2022/12/21 00:11:13;0.00;0.00;0.62;0.00;0.00;0.62;1.57;1.00;;;22.50;26.20;;;;;;2269102;61;20879;-64
2022/12/21 00:14:02;0.00;0.00;0.62;0.00;0.00;0.62;3.53;1.20;;;22.50;26.20;;;;;;2268001;61;20390;-60
2022/12/21 00:16:47;0.00;0.00;0.62;0.00;0.00;0.62;1.63;1.17;;;22.50;26.20;;;;;;2268445;61;20413;-62
2022/12/21 00:19:32;0.00;0.00;0.62;0.00;0.00;0.62;2.20;1.30;;;22.50;26.20;;;;;;2268922;61;20476;-64
2022/12/21 00:22:17;0.00;0.00;0.62;0.00;0.00;0.62;1.80;1.20;;;22.50;26.20;;;;;;2267573;61;20497;-61
2022/12/21 00:25:01;0.00;0.00;0.62;0.00;0.00;0.62;1.77;1.20;;;22.50;26.20;;;;;;2268932;61;20386;-62
2022/12/21 00:27:46;0.00;0.00;0.62;0.00;0.00;0.62;2.00;1.27;;;22.50;26.20;;;;;;2265617;61;20359;-61
2022/12/21 00:30:31;0.00;0.00;0.62;0.00;0.00;0.62;2.37;1.60;;;22.50;26.20;;;;;;2268178;61;20359;-62
2022/12/21 00:33:16;0.00;0.00;0.62;0.00;0.00;0.62;1.90;1.27;;;22.60;26.20;;;;;;2268554;61;20758;-60
2022/12/21 00:36:01;0.00;0.00;0.62;0.00;0.00;0.62;2.10;1.30;;;22.60;26.20;;;;;;2268657;61;20390;-62
2022/12/21 00:38:47;0.00;0.00;0.62;0.00;0.00;0.62;2.00;1.23;;;22.50;26.20;;;;;;2268405;61;20452;-64
2022/12/21 00:41:32;0.00;0.00;0.62;0.00;0.00;0.62;1.70;1.30;;;22.60;26.80;;;;;;2268939;61;20387;-62
2022/12/21 00:44:16;0.00;0.00;0.62;0.00;0.00;0.62;1.80;1.30;;;22.60;26.20;;;;;;2267756;61;20436;-61
2022/12/21 00:47:03;0.00;0.00;0.62;0.00;0.00;0.62;1.80;1.30;;;22.60;26.30;;;;;;2268695;61;20387;-60
2022/12/21 00:49:47;0.00;0.00;0.62;0.00;0.00;0.62;1.50;0.90;;;22.60;26.30;;;;;;2268798;61;20777;-60
2022/12/21 00:52:32;0.00;0.00;0.62;0.00;0.00;0.62;1.67;1.20;;;22.60;26.30;;;;;;2264678;61;20882;-62
2022/12/21 00:55:17;0.00;0.00;0.62;0.00;0.00;0.62;1.70;1.00;;;22.60;26.40;;;;;;2268739;61;20473;-62
2022/12/21 00:58:01;0.00;0.00;0.62;0.00;0.00;0.62;2.27;1.70;;;22.60;26.40;;;;;;2268680;61;20375;-62
2022/12/21 01:00:46;0.00;0.00;0.62;0.00;0.00;0.62;3.13;2.23;;;22.60;26.40;;;;;;2268255;61;20805;-63
2022/12/21 01:03:32;0.00;0.00;0.62;0.00;0.00;0.62;2.67;2.27;;;22.60;26.40;;;;;;2268817;61;20413;-59
2022/12/21 01:06:19;0.00;0.00;0.62;0.00;0.00;0.62;3.30;2.70;;;22.60;26.50;;;;;;2268020;61;20367;-59
2022/12/21 01:09:05;0.00;0.00;0.62;0.00;0.00;0.62;2.87;2.20;;;22.60;26.40;;;;;;2265594;61;20485;-63
2022/12/21 01:11:50;0.00;0.00;0.62;0.00;0.00;0.62;3.77;2.87;;;22.60;26.50;;;;;;2268470;61;20494;-60
2022/12/21 01:14:34;0.00;0.00;0.62;0.00;0.00;0.62;3.63;2.20;;;22.60;26.50;;;;;;2267851;61;20434;-63
2022/12/21 01:17:19;0.00;0.00;0.62;0.00;0.00;0.62;2.80;2.60;;;22.60;26.50;;;;;;2269445;61;20937;-62
2022/12/21 01:20:07;0.00;0.00;0.62;0.00;0.00;0.62;3.30;3.00;;;22.60;26.50;;;;;;2269041;61;20378;-63
2022/12/21 01:22:52;0.00;0.00;0.62;0.00;0.00;0.62;7.10;3.40;;;22.50;26.40;;;;;;2268703;61;20367;-63
2022/12/21 01:25:36;0.00;0.00;0.62;0.00;0.00;0.62;3.80;3.47;;;22.50;26.40;;;;;;2269463;61;20386;-62
2022/12/21 01:28:21;0.00;0.00;0.62;0.00;0.00;0.62;3.40;3.03;;;22.50;26.50;;;;;;2268694;61;20803;-61
2022/12/21 01:31:06;0.00;0.00;0.62;0.00;0.00;0.62;3.47;3.00;;;22.50;26.50;;;;;;2269377;61;20761;-62
2022/12/21 01:33:50;0.00;0.00;0.62;0.00;0.00;0.62;4.33;3.60;;;22.50;26.50;;;;;;2269154;61;20455;-61
2022/12/21 01:36:36;0.00;0.00;0.62;0.00;0.00;0.62;3.10;2.80;;;22.50;26.50;;;;;;2268566;61;20362;-62
2022/12/21 01:39:21;0.00;0.00;0.62;0.00;0.00;0.62;3.30;2.57;;;22.50;26.50;;;;;;2269217;61;20462;-63
2022/12/21 01:42:11;0.00;0.00;0.62;0.00;0.00;0.62;4.47;3.27;;;22.50;26.50;;;;;;2268878;61;20382;-63
2022/12/21 01:45:02;0.00;0.00;0.62;0.00;0.00;0.62;3.90;2.90;;;22.50;27.00;;;;;;2268442;61;20394;-63
2022/12/21 01:47:51;0.00;0.00;0.62;0.00;0.00;0.62;3.50;2.83;;;22.50;26.50;;;;;;2266088;61;20409;-60
2022/12/21 01:50:43;0.00;0.00;0.62;0.00;0.00;0.62;3.33;2.93;;;22.40;26.50;;;;;;2265525;61;20363;-62
2022/12/21 01:53:31;0.00;0.00;0.62;0.00;0.00;0.62;3.50;3.20;;;22.40;26.50;;;;;;2269069;61;20381;-61
2022/12/21 01:56:24;0.00;0.00;0.62;0.00;0.00;0.62;3.67;3.33;;;22.40;26.60;;;;;;2269350;61;21008;-64
2022/12/21 01:59:16;0.00;0.00;0.62;0.00;0.00;0.62;4.20;3.80;;;22.40;26.50;;;;;;2268012;61;20433;-63
2022/12/21 02:02:07;0.00;0.00;0.62;0.00;0.00;0.62;3.57;3.07;;;22.40;26.50;;;;;;2269005;61;20381;-62
2022/12/21 02:04:53;0.00;0.00;0.62;0.00;0.00;0.62;3.37;3.07;;;22.40;26.60;;;;;;2268946;61;20426;-61
2022/12/21 02:07:40;0.00;0.00;0.62;0.00;0.00;0.62;3.37;3.00;;;22.40;26.60;;;;;;2269013;61;20359;-62
2022/12/21 02:10:26;0.00;0.00;0.62;0.00;0.00;0.62;3.20;2.90;;;22.40;26.60;;;;;;2269095;61;20357;-60
2022/12/21 02:13:14;0.00;0.00;0.62;0.00;0.00;0.62;3.80;3.20;;;22.40;26.60;;;;;;2268031;61;20447;-61
2022/12/21 02:16:19;0.00;0.00;0.62;0.00;0.00;0.62;3.30;3.00;;;22.30;26.50;;;;;;2269104;61;20465;-61
2022/12/21 02:19:52;0.00;0.00;0.62;0.00;0.00;0.62;3.87;3.10;;;22.30;27.10;;;;;;2269070;61;20359;-63
2022/12/21 02:23:03;0.00;0.00;0.62;0.00;0.00;0.62;3.80;3.30;;;22.30;26.60;;;;;;2266673;61;20775;-63
2022/12/21 02:26:17;0.00;0.00;0.62;0.00;0.00;0.62;3.63;3.00;;;22.30;26.60;;;;;;2266122;61;20424;-62
2022/12/21 02:30:07;0.00;0.00;0.62;0.00;0.00;0.62;3.37;3.07;;;22.30;26.70;;;;;;2268555;61;20458;-63
2022/12/21 02:33:18;0.00;0.00;0.62;0.00;0.00;0.62;3.70;3.30;;;22.30;26.70;;;;;;2256203;61;20772;-64
2022/12/21 02:36:21;0.00;0.00;0.62;0.00;0.00;0.62;2.90;2.60;;;22.30;26.70;;;;;;2255269;61;20401;-62
2022/12/21 02:39:16;0.00;0.00;0.62;0.00;0.00;0.62;3.50;3.20;;;22.20;26.60;;;;;;2269028;61;20405;-62
2022/12/21 02:42:08;0.00;0.00;0.62;0.00;0.00;0.62;3.33;3.03;;;22.20;26.70;;;;;;2268651;61;20859;-61
2022/12/21 02:44:58;0.00;0.00;0.62;0.00;0.00;0.62;3.67;3.37;;;22.20;26.70;;;;;;2268686;61;20438;-61
2022/12/21 02:47:54;0.00;0.00;0.62;0.00;0.00;0.62;3.40;2.93;;;22.20;26.70;;;;;;2268555;61;20383;-62
2022/12/21 02:50:46;0.00;0.00;0.62;0.00;0.00;0.62;3.17;2.43;;;22.20;26.70;;;;;;2268227;61;20413;-61
2022/12/21 02:53:36;0.00;0.00;0.62;0.00;0.00;0.62;3.20;2.90;;;22.20;26.70;;;;;;2265776;61;20459;-62
2022/12/21 02:56:21;0.00;0.00;0.62;0.00;0.00;0.62;3.27;2.93;;;22.20;26.70;;;;;;2268735;61;20356;-59
2022/12/21 02:59:08;0.00;0.00;0.62;0.00;0.00;0.62;3.43;2.90;;;22.20;26.80;;;;;;2268507;61;20397;-62
2022/12/21 03:02:34;0.00;0.00;0.62;0.00;0.00;0.62;3.33;3.03;;;22.20;26.80;;;;;;2265648;61;20344;-61
2022/12/21 03:05:36;0.00;0.00;0.62;0.00;0.00;0.62;3.60;3.10;;;22.20;26.80;;;;;;2264827;61;20432;-63
2022/12/21 03:08:35;0.00;0.00;0.62;0.00;0.00;0.62;3.27;2.73;;;22.20;26.80;;;;;;2265941;61;20347;-61
2022/12/21 03:11:30;0.00;0.00;0.62;0.00;0.00;0.62;3.53;2.97;;;22.20;26.90;;;;;;2265485;61;20440;-60
2022/12/21 03:14:25;0.00;0.00;0.62;0.00;0.00;0.62;3.23;2.77;;;22.10;26.80;;;;;;2268778;61;20761;-62
2022/12/21 03:17:18;0.00;0.00;0.62;0.00;0.00;0.62;3.40;3.10;;;22.20;26.80;;;;;;2268539;61;20950;-61
2022/12/21 03:20:12;0.00;0.00;0.62;0.00;0.00;0.62;3.00;2.67;;;22.10;26.80;;;;;;2264569;61;20399;-65
2022/12/21 03:23:03;0.00;0.00;0.62;0.00;0.00;0.62;4.20;3.10;;;22.10;26.80;;;;;;2265760;61;20418;-62
2022/12/21 03:25:55;0.00;0.00;0.62;0.00;0.00;0.62;4.80;3.03;;;22.10;26.80;;;;;;2267868;61;20421;-62
2022/12/21 03:28:43;0.00;0.00;0.62;0.00;0.00;0.62;3.07;2.70;;;22.10;26.80;;;;;;2268418;61;20367;-61
2022/12/21 03:31:34;0.00;0.00;0.62;0.00;0.00;0.62;3.17;2.80;;;22.10;26.80;;;;;;2268706;61;20405;-62
2022/12/21 03:34:24;0.00;0.00;0.62;0.00;0.00;0.62;3.40;3.10;;;22.10;26.80;;;;;;2267641;61;20379;-62
2022/12/21 03:37:16;0.00;0.00;0.62;0.00;0.00;0.62;3.90;3.50;;;22.10;26.80;;;;;;2268886;61;20409;-60
2022/12/21 03:40:07;0.00;0.00;0.62;0.00;0.00;0.62;3.33;3.03;;;22.10;27.30;;;;;;2268570;61;20508;-61
2022/12/21 03:42:59;0.00;0.00;0.62;0.00;0.00;0.62;4.00;3.00;;;22.00;26.80;;;;;;2268070;61;20367;-63
2022/12/21 03:45:50;0.00;0.00;0.62;0.00;0.00;0.62;3.97;3.30;;;22.00;26.80;;;;;;2268856;61;20383;-61
2022/12/21 03:48:40;0.00;0.00;0.62;0.00;0.00;0.62;3.40;3.10;;;22.00;26.80;;;;;;2268149;61;20339;-62
2022/12/21 03:51:35;0.00;0.00;0.62;0.00;0.00;0.62;3.50;3.00;;;22.00;26.80;;;;;;2268625;61;20398;-60
2022/12/21 03:54:29;0.00;0.00;0.62;0.00;0.00;0.62;3.20;2.90;;;22.00;26.90;;;;;;2268475;61;20471;-63
2022/12/21 03:57:15;0.00;0.00;0.62;0.00;0.00;0.62;4.57;4.17;;;22.00;26.90;;;;;;2267958;61;20827;-61
2022/12/21 04:00:04;0.00;0.00;0.62;0.00;0.00;0.62;3.00;2.70;;;22.00;26.90;;;;;;2268634;61;20368;-60
2022/12/21 04:03:05;0.00;0.00;0.62;0.00;0.00;0.62;3.17;2.87;;;21.90;26.80;;;;;;2268356;61;20356;-63
2022/12/21 04:05:55;0.00;0.00;0.62;0.00;0.00;0.62;3.30;2.77;;;21.90;26.80;;;;;;2268556;61;20383;-62
2022/12/21 04:08:40;0.00;0.00;0.62;0.00;0.00;0.62;3.93;3.00;;;22.00;26.90;;;;;;2265572;61;20886;-62
2022/12/21 04:14:38;0.00;0.00;0.62;0.00;0.00;0.62;3.13;2.83;;;21.90;26.90;;;;;;2265375;61;20429;-62
2022/12/21 04:17:24;0.00;0.00;0.62;0.00;0.00;0.62;3.30;3.00;;;21.90;26.90;;;;;;2265411;61;20351;-60
2022/12/21 04:20:12;0.00;0.00;0.62;0.00;0.00;0.62;3.50;3.20;;;21.90;26.90;;;;;;2264858;61;20387;-60
2022/12/21 04:29:04;0.00;0.00;0.62;0.00;0.00;0.62;4.60;2.97;;;21.90;26.90;;;;;;2268744;61;20367;-62
2022/12/21 04:31:48;0.00;0.00;0.62;0.00;0.00;0.62;3.53;2.73;;;21.90;26.90;;;;;;2268635;61;20875;-60
2022/12/21 04:34:34;0.00;0.00;0.62;0.00;0.00;0.62;3.53;3.23;;;21.90;26.90;;;;;;2267815;61;20917;-61
2022/12/21 04:37:31;0.00;0.00;0.62;0.00;0.00;0.62;3.20;2.70;;;21.90;26.90;;;;;;2268743;61;20513;-60
2022/12/21 04:40:16;0.00;0.00;0.62;0.00;0.00;0.62;3.47;2.87;;;21.90;26.90;;;;;;2268188;61;20390;-62
2022/12/21 04:43:03;0.00;0.00;0.62;0.00;0.00;0.62;4.30;3.10;;;21.90;27.00;;;;;;2268221;61;20898;-63
2022/12/21 04:45:47;0.00;0.00;0.62;0.00;0.00;0.62;3.30;3.00;;;21.90;27.00;;;;;;2268604;61;20387;-61
2022/12/21 04:48:32;0.00;0.00;0.62;0.00;0.00;0.62;3.20;2.90;;;21.90;27.00;;;;;;2267854;61;20363;-61
2022/12/21 04:51:21;0.00;0.00;0.62;0.00;0.00;0.62;3.57;3.10;;;21.90;27.00;;;;;;2268590;61;20970;-64
2022/12/21 04:54:06;0.00;0.00;0.62;0.00;0.00;0.62;3.40;3.10;;;21.90;27.00;;;;;;2265420;61;20392;-60
2022/12/21 04:56:51;0.00;0.00;0.62;0.00;0.00;0.62;3.47;2.80;;;21.90;27.10;;;;;;2267650;61;20850;-60
2022/12/21 04:59:36;0.00;0.00;0.62;0.00;0.00;0.62;3.00;2.70;;;21.90;27.10;;;;;;2268809;61;20505;-62
2022/12/21 05:02:21;0.00;0.00;0.62;0.00;0.00;0.62;2.70;2.30;;;21.80;27.00;;;;;;2268311;61;20386;-63
2022/12/21 05:05:07;0.00;0.00;0.62;0.00;0.00;0.62;3.03;2.63;;;21.90;27.10;;;;;;2268135;61;20382;-61
2022/12/21 05:07:53;0.00;0.00;0.62;0.00;0.00;0.62;3.87;3.47;;;21.90;27.10;;;;;;2268879;61;20832;-61
2022/12/21 05:10:38;0.00;0.00;0.62;0.00;0.00;0.62;3.53;2.73;;;21.90;27.10;;;;;;2267716;61;20367;-60
2022/12/21 05:13:22;0.00;0.00;0.62;0.00;0.00;0.62;3.40;3.10;;;21.90;27.10;;;;;;2268425;61;20358;-60
2022/12/21 05:16:10;0.00;0.00;0.62;0.00;0.00;0.62;3.10;2.80;;;21.90;27.10;;;;;;2268747;61;20359;-62
2022/12/21 05:18:56;0.00;0.00;0.62;0.00;0.00;0.62;3.00;2.70;;;21.90;27.10;;;;;;2267885;61;20784;-60
2022/12/21 05:21:41;0.00;0.00;0.62;0.00;0.00;0.62;2.97;2.67;;;21.90;27.10;;;;;;2265482;61;20391;-63
2022/12/21 05:24:27;0.00;0.00;0.62;0.00;0.00;0.62;3.67;2.90;;;21.80;27.10;;;;;;2268288;61;20424;-61
2022/12/21 05:27:12;0.00;0.00;0.62;0.00;0.00;0.62;3.67;3.13;;;21.90;27.70;;;;;;2268201;61;20383;-62
2022/12/21 05:29:57;0.00;0.00;0.62;0.00;0.00;0.62;2.70;2.30;;;21.90;27.20;;;;;;2268727;61;20390;-63
2022/12/21 05:32:41;0.00;0.00;0.62;0.00;0.00;0.62;3.40;2.90;;;21.90;27.20;;;;;;2267854;61;20359;-61
2022/12/21 05:35:26;0.00;0.00;0.62;0.00;0.00;0.62;2.97;2.67;;;21.90;27.30;;;;;;2268709;61;20835;-63
2022/12/21 05:38:10;0.00;0.00;0.62;0.00;0.00;0.62;3.37;3.00;;;21.90;27.30;;;;;;2268612;61;20374;-62
2022/12/21 05:40:56;0.00;0.00;0.62;0.00;0.00;0.62;3.27;2.30;;;21.90;27.40;;;;;;2267402;61;20391;-61
2022/12/21 05:43:42;0.00;0.00;0.62;0.00;0.00;0.62;3.33;2.80;;;21.90;27.40;;;;;;2264356;61;20489;-61
2022/12/21 05:46:26;0.00;0.00;0.62;0.00;0.00;0.62;3.10;2.70;;;21.80;27.30;;;;;;2268084;61;20383;-64
2022/12/21 05:49:11;0.00;0.00;0.62;0.00;0.00;0.62;3.60;2.87;;;21.90;27.40;;;;;;2267813;61;20490;-60
2022/12/21 05:51:56;0.00;0.00;0.62;0.00;0.00;0.62;2.90;2.40;;;21.80;27.40;;;;;;2268334;61;20460;-63
2022/12/21 05:54:41;0.00;0.00;0.62;0.00;0.00;0.62;2.47;2.27;;;21.80;27.30;;;;;;2264600;61;20382;-62
2022/12/21 05:57:27;0.00;0.00;0.62;0.00;0.00;0.62;3.20;2.37;;;21.80;27.30;;;;;;2268796;61;20389;-62
2022/12/21 06:00:14;0.00;0.00;0.62;0.00;0.00;0.62;3.80;3.20;;;21.80;27.30;;;;;;2265153;61;20378;-61
2022/12/21 06:02:58;0.00;0.00;0.62;0.00;0.00;0.62;3.10;2.40;;;21.80;27.30;;;;;;2267776;61;20367;-62
2022/12/21 06:05:43;0.00;0.00;0.62;0.00;0.00;0.62;2.40;2.13;;;21.80;27.30;;;;;;2269194;61;20382;-64
2022/12/21 06:08:30;0.00;0.00;0.62;0.00;0.00;0.62;4.70;4.20;;;21.80;27.30;;;;;;2268826;61;20379;-60
2022/12/21 06:11:17;0.00;0.00;0.62;0.00;0.00;0.62;3.63;3.10;;;21.80;27.40;;;;;;2268701;61;20400;-61
2022/12/21 06:14:03;0.00;0.00;0.62;0.00;0.00;0.62;3.37;2.50;;;21.80;27.40;;;;;;2268841;61;20382;-62
2022/12/21 06:16:48;0.00;0.00;0.62;0.00;0.00;0.62;4.40;3.17;;;21.80;27.40;;;;;;2268530;61;20371;-63
2022/12/21 06:19:33;0.00;0.00;0.62;0.00;0.00;0.62;2.73;2.37;;;21.80;27.40;;;;;;2265878;61;20348;-63
2022/12/21 06:22:18;0.00;0.00;0.62;0.00;0.00;0.62;2.57;2.10;;;21.80;27.50;;;;;;2268412;61;20930;-61
2022/12/21 06:25:03;0.00;0.00;0.62;0.00;0.00;0.62;2.53;2.33;;;21.70;28.00;;;;;;2268420;61;20437;-61
2022/12/21 06:27:48;0.00;0.00;0.62;0.00;0.00;0.62;2.67;2.33;;;21.70;27.40;;;;;;2269157;61;20417;-62
2022/12/21 06:30:33;0.00;0.00;0.62;0.00;0.00;0.62;2.90;2.57;;;21.70;27.40;;;;;;2269103;61;20950;-63
2022/12/21 06:33:19;0.00;0.00;0.62;0.00;0.00;0.62;3.07;2.57;;;21.70;27.40;;;;;;2268571;61;20595;-63
2022/12/21 06:36:06;0.00;0.00;0.62;0.00;0.00;0.62;2.73;2.17;;;21.70;27.40;;;;;;2268983;61;20359;-62
2022/12/21 06:38:51;0.00;0.00;0.62;0.00;0.00;0.62;2.57;2.20;;;21.70;27.40;;;;;;2268496;61;20389;-64
2022/12/21 06:41:35;0.00;0.00;0.62;0.00;0.00;0.62;2.80;2.17;;;21.70;27.50;;;;;;2268661;61;20379;-63
2022/12/21 06:44:20;0.00;0.00;0.62;0.00;0.00;0.62;3.07;2.50;;;21.70;27.40;;;;;;2265972;61;20398;-62
2022/12/21 06:47:06;0.00;0.00;0.62;0.00;0.00;0.62;2.67;2.30;;;21.70;27.50;;;;;;2268109;61;20402;-62
2022/12/21 06:49:50;0.00;0.00;0.62;0.00;0.00;0.62;2.50;2.10;;;21.70;27.50;;;;;;2269021;61;20385;-63
2022/12/21 06:52:35;0.00;0.00;0.62;0.00;0.00;0.62;3.23;2.30;;;21.70;27.50;;;;;;2268983;61;20355;-63
2022/12/21 06:55:20;0.00;0.00;0.62;0.00;0.00;0.62;2.63;2.33;;;21.70;27.50;;;;;;2268331;61;20425;-62
2022/12/21 06:58:04;0.00;0.00;0.62;0.00;0.00;0.62;2.60;2.40;;;21.70;27.50;;;;;;2269124;61;20355;-61
2022/12/21 07:00:49;0.00;0.00;0.62;0.00;0.00;0.62;2.17;1.97;;;21.70;27.50;;;;;;2268767;61;20406;-62
2022/12/21 07:03:36;0.00;0.00;0.62;0.00;0.00;0.62;2.40;2.20;;;21.70;27.50;;;;;;2268540;61;20344;-62
2022/12/21 07:06:23;0.00;0.00;0.62;0.00;0.00;0.62;2.57;2.33;;;21.70;28.10;;;;;;2269105;61;20501;-60
2022/12/21 07:09:11;0.00;0.00;0.62;0.00;0.00;0.62;3.00;2.37;;;21.70;27.50;;;;;;2268018;61;20347;-62
2022/12/21 07:11:55;0.00;0.00;0.62;0.00;0.00;0.62;2.87;2.57;;;21.70;27.60;;;;;;2268954;61;20404;-63
2022/12/21 07:14:40;0.00;0.00;0.62;0.00;0.00;0.62;3.47;3.17;;;21.70;27.60;;;;;;2268916;61;20383;-62
2022/12/21 07:17:25;0.00;0.00;0.62;0.00;0.00;0.62;3.40;2.90;;;21.60;27.60;;;;;;2268477;61;20854;-64
2022/12/21 07:20:11;0.00;0.00;0.62;0.00;0.00;0.62;2.53;2.23;;;21.60;27.60;;;;;;2268840;61;20440;-63
2022/12/21 07:22:55;0.00;0.00;0.62;0.00;0.00;0.62;3.53;2.80;;;21.70;27.80;;;;;;2268644;61;20367;-63
2022/12/21 07:25:40;0.00;0.00;0.62;0.00;0.00;0.62;3.80;3.40;;;21.60;27.70;;;;;;2268481;61;20941;-62
2022/12/21 07:28:25;0.00;0.00;0.62;0.00;0.00;0.62;3.03;2.73;;;21.60;27.70;;;;;;2269001;61;20363;-66
2022/12/21 07:31:12;0.00;0.00;0.62;0.00;0.00;0.62;3.73;3.40;;;21.60;27.70;;;;;;2267675;61;20371;-63
2022/12/21 07:33:57;0.00;0.00;0.62;0.00;0.00;0.62;3.50;3.07;;;21.60;27.70;;;;;;2267538;61;20371;-69
2022/12/21 07:36:43;0.00;0.00;0.62;0.00;0.00;0.62;2.90;2.60;;;21.60;27.80;;;;;;2268799;61;20763;-64
2022/12/21 07:39:28;0.00;0.00;0.62;0.00;0.00;0.62;6.00;3.47;;;21.60;27.70;;;;;;2267529;61;20984;-65
2022/12/21 07:42:12;0.00;0.00;0.62;0.00;0.00;0.62;3.83;3.43;;;21.60;27.70;;;;;;2268620;61;20403;-66
2022/12/21 07:44:59;0.00;0.00;0.62;0.00;0.00;0.62;5.20;3.83;;;21.60;27.70;;;;;;2268448;61;20400;-64
2022/12/21 07:47:56;0.00;0.00;0.62;0.00;0.00;0.62;4.17;3.70;;;21.60;27.70;;;;;;2264912;61;20399;-67
2022/12/21 07:50:40;0.00;0.00;0.62;0.00;0.00;0.62;5.43;4.20;;;21.60;27.70;;;;;;2268820;61;20359;-65
2022/12/21 07:53:26;0.00;0.00;0.62;0.00;0.00;0.62;3.50;3.20;;;21.60;27.70;;;;;;2267326;61;20363;-68
2022/12/21 07:56:15;0.00;0.00;0.62;0.00;0.00;0.62;5.93;3.87;;;21.60;27.80;;;;;;2268395;61;20497;-66
2022/12/21 07:59:00;0.00;0.00;0.62;0.00;0.00;0.62;5.03;4.53;;;21.60;27.70;;;;;;2268625;61;20971;-65
2022/12/21 08:01:45;0.00;0.00;0.62;0.00;0.00;0.62;3.77;3.40;;;21.60;27.70;;;;;;2267635;61;20391;-66
2022/12/21 08:04:30;0.00;0.00;0.62;0.00;0.00;0.62;4.00;3.60;;;21.60;27.70;;;;;;2268308;61;20386;-66
2022/12/21 08:07:15;0.00;0.00;0.62;0.00;0.00;0.62;3.70;3.40;;;21.60;27.70;;;;;;2690127;45;20363;-65
2022/12/21 08:10:01;0.00;0.00;0.62;0.00;0.00;0.62;4.10;3.70;;;21.60;27.70;;;;;;2268185;61;20359;-65
2022/12/21 08:12:46;0.00;0.00;0.62;0.00;0.00;0.62;4.20;3.80;;;21.60;27.70;;;;;;2268434;61;20375;-61
2022/12/21 08:15:31;0.00;0.00;0.62;0.00;0.00;0.62;3.80;3.40;;;21.60;27.70;;;;;;2267682;61;20411;-62
2022/12/21 08:18:15;0.00;0.00;0.62;0.00;0.00;0.62;3.93;3.33;;;21.60;27.70;;;;;;2265499;61;20363;-63
2022/12/21 08:21:00;0.00;0.00;0.62;0.00;0.00;0.62;4.87;3.40;;;21.60;27.70;;;;;;2268325;61;20395;-64
2022/12/21 08:23:47;0.00;0.00;0.62;0.00;0.00;0.62;3.43;3.13;;;21.60;27.70;;;;;;2267230;61;20472;-63
2022/12/21 08:26:34;0.00;0.00;0.62;0.00;0.00;0.62;4.00;3.60;;;21.60;27.70;;;;;;2268451;61;20367;-68
2022/12/21 08:29:18;0.00;0.00;0.62;0.00;0.00;0.62;4.40;3.27;;;21.60;27.70;;;;;;2268344;61;20506;-63
2022/12/21 08:32:03;0.00;0.00;0.62;0.00;0.00;0.62;4.73;4.17;;;21.60;27.70;;;;;;2267815;61;20459;-68
2022/12/21 08:34:48;0.00;0.00;0.62;0.00;0.00;0.62;4.70;3.93;;;21.60;27.70;;;;;;2268520;61;20474;-65
2022/12/21 08:37:32;0.00;0.00;0.62;0.00;0.00;0.62;4.30;3.90;;;21.60;27.80;;;;;;2267930;61;20409;-67
2022/12/21 08:40:17;0.00;0.00;0.62;0.00;0.00;0.62;4.03;3.47;;;21.60;27.70;;;;;;2268607;61;20430;-66
2022/12/21 08:43:04;0.00;0.00;0.62;0.00;0.00;0.62;4.30;3.90;;;21.60;27.70;;;;;;2268438;61;20458;-63
2022/12/21 08:45:49;0.00;0.00;0.62;0.00;0.00;0.62;3.70;3.20;;;21.60;27.70;;;;;;2267465;61;20895;-67
2022/12/21 08:48:35;0.00;0.00;0.62;0.00;0.00;0.62;3.53;3.20;;;21.60;27.70;;;;;;2268556;61;20371;-64
2022/12/21 08:51:19;0.00;0.00;0.62;0.00;0.00;0.62;3.87;3.33;;;21.60;27.70;;;;;;2267960;61;20359;-67
2022/12/21 08:54:04;0.00;0.00;0.62;0.00;0.00;0.62;4.47;3.70;;;21.70;27.80;;;;;;2267425;61;20934;-64
2022/12/21 08:56:48;0.00;0.00;0.62;0.00;0.00;0.62;4.17;3.07;;;21.70;28.30;;;;;;2268564;61;20890;-64
2022/12/21 08:59:34;0.00;0.00;0.62;0.00;0.00;0.62;4.80;3.20;;;21.70;27.80;;;;;;2267850;61;20367;-69
2022/12/21 09:02:18;0.00;0.00;0.62;0.00;0.00;0.62;3.10;2.67;;;21.70;27.80;;;;;;2267987;61;20409;-64
2022/12/21 09:05:04;0.00;0.00;0.62;0.00;0.00;0.62;4.57;3.60;;;21.70;27.80;;;;;;2268281;61;20438;-66
2022/12/21 09:07:49;0.00;0.00;0.62;0.00;0.00;0.62;4.03;3.50;;;21.70;27.80;;;;;;2267618;61;20942;-64
2022/12/21 09:10:34;0.00;0.00;0.62;0.00;0.00;0.62;4.40;3.57;;;21.70;27.80;;;;;;2268434;61;20418;-63
2022/12/21 09:13:18;0.00;0.00;0.62;0.00;0.00;0.62;3.97;3.43;;;21.70;27.80;;;;;;2268267;61;20430;-64
2022/12/21 09:16:12;0.00;0.00;0.62;0.00;0.00;0.62;3.10;2.80;;;21.70;27.80;;;;;;2267617;61;20414;-64
2022/12/21 09:18:57;0.00;0.00;0.62;0.00;0.00;0.62;4.13;3.60;;;21.70;27.80;;;;;;2268479;61;20913;-64
2022/12/21 09:21:42;0.00;0.00;0.62;0.00;0.00;0.62;3.30;2.67;;;21.70;27.80;;;;;;2267875;61;20426;-63
2022/12/21 09:24:26;0.00;0.00;0.62;0.00;0.00;0.62;3.00;2.60;;;21.70;27.80;;;;;;2268219;61;20461;-64
2022/12/21 09:27:11;0.00;0.00;0.62;0.00;0.00;0.62;3.00;2.50;;;21.70;27.80;;;;;;2268281;61;20363;-65
2022/12/21 09:29:55;0.00;0.00;0.62;0.00;0.00;0.62;2.60;2.33;;;21.70;27.80;;;;;;2267292;61;20375;-65
2022/12/21 09:32:41;0.00;0.00;0.62;0.00;0.00;0.62;3.50;2.50;;;21.70;27.80;;;;;;2268122;61;20405;-63
2022/12/21 09:35:26;0.00;0.00;0.62;0.00;0.00;0.62;3.83;3.43;;;21.70;27.80;;;;;;2268391;61;20427;-66
2022/12/21 09:38:10;0.00;0.00;0.62;0.00;0.00;0.62;4.90;4.10;;;21.70;27.80;;;;;;2267910;61;20890;-65
2022/12/21 09:41:01;0.00;0.00;0.62;0.00;0.00;0.62;4.03;3.43;;;21.70;27.80;;;;;;2269021;61;20387;-68
2022/12/21 09:43:56;0.00;0.00;0.62;0.00;0.00;0.62;4.70;4.17;;;21.70;27.80;;;;;;2268162;61;20371;-62
2022/12/21 09:46:42;0.00;0.00;0.62;0.00;0.00;0.62;3.40;3.10;;;21.70;27.90;;;;;;2268622;61;20358;-64
2022/12/21 09:49:39;0.00;0.00;0.62;0.00;0.00;0.62;3.70;3.10;;;21.70;27.90;;;;;;2269014;61;20390;-66
2022/12/21 09:52:31;0.00;0.00;0.62;0.00;0.00;0.62;4.63;3.83;;;21.70;27.90;;;;;;2268140;61;20397;-63
2022/12/21 09:55:19;0.00;0.00;0.62;0.00;0.00;0.62;4.90;3.67;;;21.70;28.00;;;;;;2265527;61;20374;-65
2022/12/21 09:58:14;0.00;0.00;0.62;0.00;0.00;0.62;4.80;4.30;;;21.70;28.00;;;;;;2268631;61;20810;-63
2022/12/21 10:01:09;0.00;0.00;0.62;0.00;0.00;0.62;4.47;3.70;;;21.70;28.00;;;;;;2268642;61;20390;-65
2022/12/21 10:04:33;0.00;0.00;0.62;0.00;0.00;0.62;4.30;3.50;;;21.70;28.10;;;;;;2268963;61;20416;-65
2022/12/21 10:07:48;0.00;0.00;0.62;0.00;0.00;0.62;3.70;3.07;;;21.70;28.10;;;;;;2526362;53;20893;-62
2022/12/21 10:10:39;0.00;0.00;0.62;0.00;0.00;0.62;3.73;3.13;;;21.70;28.10;;;;;;2265090;61;20477;-61
2022/12/21 10:13:38;0.00;0.00;0.62;0.00;0.00;0.62;3.10;2.77;;;21.70;28.10;;;;;;2268300;61;20375;-62
2022/12/21 10:16:30;0.00;0.00;0.62;0.00;0.00;0.62;2.63;2.30;;;21.70;28.10;;;;;;2268887;61;20367;-65
2022/12/21 10:19:23;0.00;0.00;0.62;0.00;0.00;0.62;3.33;2.47;;;21.70;28.10;;;;;;2265791;61;20890;-65
2022/12/21 10:22:16;0.00;0.00;0.62;0.00;0.00;0.62;2.73;2.43;;;21.70;28.10;;;;;;2267905;61;20406;-67
2022/12/21 10:25:12;0.00;0.00;0.62;0.00;0.00;0.62;3.23;2.57;;;21.80;28.20;;;;;;2268897;61;20471;-60
2022/12/21 10:28:09;0.00;0.00;0.62;0.00;0.00;0.62;3.40;2.50;;;21.80;28.20;;;;;;2268707;61;20399;-67
2022/12/21 10:31:01;0.00;0.00;0.62;0.00;0.00;0.62;4.30;2.40;;;21.80;28.30;;;;;;2268752;61;20398;-67
2022/12/21 10:33:50;0.00;0.00;0.62;0.00;0.00;0.62;3.43;2.10;;;21.80;28.20;;;;;;2268876;61;20348;-66
2022/12/21 10:36:37;0.00;0.00;0.62;0.00;0.00;0.62;2.40;2.00;;;21.80;28.20;;;;;;2267857;61;20413;-65
2022/12/21 10:39:22;0.00;0.00;0.62;0.00;0.00;0.62;2.33;2.03;;;21.90;28.30;;;;;;2269246;61;20359;-65
2022/12/21 10:42:17;0.00;0.00;0.62;0.00;0.00;0.62;3.20;2.23;;;21.90;28.20;;;;;;2268821;61;21064;-65
2022/12/21 10:45:03;0.00;0.00;0.62;0.00;0.00;0.62;2.67;2.17;;;21.90;28.20;;;;;;2268269;61;20448;-65
2022/12/21 10:47:48;0.00;0.00;0.62;0.00;0.00;0.62;2.27;1.77;;;21.90;28.20;;;;;;2268970;61;20363;-66
2022/12/21 10:50:38;0.00;0.00;0.62;0.00;0.00;0.62;2.20;1.87;;;21.90;28.20;;;;;;2268497;61;20946;-63
2022/12/21 10:53:26;0.00;0.00;0.62;0.00;0.00;0.62;3.27;1.80;;;22.00;28.20;;;;;;2268612;61;20367;-63
2022/12/21 10:56:15;0.00;0.00;0.62;0.00;0.00;0.62;2.70;2.20;;;22.00;28.20;;;;;;2268967;61;20875;-65
2022/12/21 10:59:13;0.00;0.00;0.62;0.00;0.00;0.62;3.20;2.07;;;22.00;28.20;;;;;;2268050;61;20456;-66
2022/12/21 11:01:58;0.00;0.00;0.62;0.00;0.00;0.62;4.40;3.27;;;22.00;28.20;;;;;;2268583;61;20474;-62
2022/12/21 11:04:42;0.00;0.00;0.62;0.00;0.00;0.62;3.33;3.00;;;22.00;28.10;;;;;;2268736;61;20386;-67
2022/12/21 11:07:30;0.00;0.00;0.62;0.00;0.00;0.62;4.23;3.77;;;22.00;28.00;;;;;;2268384;61;20389;-65
2022/12/21 11:10:26;0.00;0.00;0.62;0.00;0.00;0.62;4.30;3.17;;;22.10;28.10;;;;;;2268801;61;20367;-66
2022/12/21 11:13:12;0.00;0.00;0.62;0.00;0.00;0.62;3.13;2.83;;;22.10;28.10;;;;;;2268010;61;20522;-64